createdAt,value
2017-08-18T00:00:00.099Z,89.15
2017-08-18T00:00:26.261Z,88.81
2017-08-18T00:00:52.416Z,89.09
2017-08-18T00:01:18.637Z,88.67
2017-08-18T00:01:44.784Z,88.76
2017-08-18T00:02:10.953Z,88.57
2017-08-18T00:02:37.162Z,88.57
2017-08-18T00:03:03.308Z,88.95
2017-08-18T00:03:29.450Z,88.57
2017-08-18T00:03:55.638Z,88.67
2017-08-18T00:04:21.826Z,88.95
2017-08-18T00:04:48.003Z,89
2017-08-18T00:05:14.193Z,88.57
2017-08-18T00:05:40.422Z,89.15
2017-08-18T00:06:06.652Z,88.85
2017-08-18T00:06:32.846Z,88.95
2017-08-18T00:06:59.023Z,88.47
2017-08-18T00:07:25.221Z,88.85
2017-08-18T00:07:51.447Z,89.34
2017-08-18T00:08:17.673Z,88.95
2017-08-18T00:08:43.835Z,89.34
2017-08-18T00:09:09.990Z,89.15
2017-08-18T00:09:36.198Z,89.34
2017-08-18T00:10:02.324Z,89.15
2017-08-18T00:10:28.585Z,89.34
2017-08-18T00:10:54.785Z,88.76
2017-08-18T00:11:21.005Z,88.85
2017-08-18T00:11:47.237Z,89.15
2017-08-18T00:12:13.441Z,89.43
2017-08-18T00:12:39.632Z,89.05
2017-08-18T00:13:05.805Z,88.76
2017-08-18T00:13:31.967Z,89.15
2017-08-18T00:13:58.164Z,89.15
2017-08-18T00:14:24.341Z,88.85
2017-08-18T00:14:50.495Z,88.85
2017-08-18T00:15:16.696Z,88.95
2017-08-18T00:15:42.875Z,89.34
2017-08-18T00:16:09.059Z,89.53
2017-08-18T00:16:35.285Z,89.24
2017-08-18T00:17:01.434Z,88.76
2017-08-18T00:17:27.576Z,89.34
2017-08-18T00:17:53.771Z,88.85
2017-08-18T00:18:19.954Z,88.95
2017-08-18T00:18:46.149Z,88.95
2017-08-18T00:19:12.297Z,89.24
2017-08-18T00:19:38.453Z,89.43
2017-08-18T00:20:04.681Z,89.24
2017-08-18T00:20:30.891Z,89.15
2017-08-18T00:20:57.035Z,89.53
2017-08-18T00:21:23.232Z,89.82
2017-08-18T00:21:49.450Z,89.05
2017-08-18T00:22:15.621Z,89.53
2017-08-18T00:22:41.787Z,89.43
2017-08-18T00:23:08.004Z,89.72
2017-08-18T00:23:34.219Z,89.43
2017-08-18T00:24:00.395Z,89.34
2017-08-18T00:24:26.571Z,89.34
2017-08-18T00:24:52.769Z,88.76
2017-08-18T00:25:18.988Z,89.24
2017-08-18T00:25:45.133Z,89.63
2017-08-18T00:26:11.265Z,89.43
2017-08-18T00:26:37.421Z,89.53
2017-08-18T00:27:03.621Z,89.34
2017-08-18T00:27:29.815Z,89.34
2017-08-18T00:27:55.980Z,89.15
2017-08-18T00:28:22.095Z,89.34
2017-08-18T00:28:48.277Z,89.63
2017-08-18T00:29:14.408Z,89.72
2017-08-18T00:29:40.587Z,89.53
2017-08-18T00:30:06.736Z,89.63
2017-08-18T00:30:32.901Z,89.63
2017-08-18T00:30:59.046Z,89.63
2017-08-18T00:31:25.218Z,89.15
2017-08-18T00:31:51.412Z,89.34
2017-08-18T00:32:17.534Z,89.34
2017-08-18T00:32:43.708Z,90.01
2017-08-18T00:33:09.933Z,89.34
2017-08-18T00:33:36.152Z,89.15
2017-08-18T00:34:02.326Z,89.05
2017-08-18T00:34:28.518Z,89.92
2017-08-18T00:34:54.691Z,89.82
2017-08-18T00:35:20.895Z,90.01
2017-08-18T00:35:47.080Z,89.34
2017-08-18T00:36:13.196Z,89.82
2017-08-18T00:36:39.389Z,89.53
2017-08-18T00:37:05.615Z,89.63
2017-08-18T00:37:31.757Z,89.53
2017-08-18T00:37:57.922Z,89.34
2017-08-18T00:38:24.117Z,89.15
2017-08-18T00:38:50.354Z,89.34
2017-08-18T00:39:16.537Z,89.72
2017-08-18T00:39:42.799Z,90.01
2017-08-18T00:40:08.949Z,90.01
2017-08-18T00:40:35.179Z,89.92
2017-08-18T00:41:01.323Z,89.43
2017-08-18T00:41:27.502Z,89.63
2017-08-18T00:41:53.731Z,89.63
2017-08-18T00:42:19.904Z,89.43
2017-08-18T00:42:46.119Z,88.95
2017-08-18T00:43:12.344Z,89.43
2017-08-18T00:43:38.556Z,89.24
2017-08-18T00:44:04.767Z,89.72
2017-08-18T00:44:30.926Z,89.92
2017-08-18T00:44:57.076Z,89.53
2017-08-18T00:45:23.281Z,89.34
2017-08-18T00:45:49.499Z,89.34
2017-08-18T00:46:15.623Z,89.82
2017-08-18T00:46:41.790Z,89.53
2017-08-18T00:47:07.962Z,89.63
2017-08-18T00:47:34.142Z,89.63
2017-08-18T00:48:00.334Z,89.43
2017-08-18T00:48:26.454Z,89.53
2017-08-18T00:48:52.629Z,89.72
2017-08-18T00:49:18.814Z,89.72
2017-08-18T00:49:44.921Z,89.92
2017-08-18T00:50:11.156Z,89.82
2017-08-18T00:50:37.346Z,89.82
2017-08-18T00:51:03.502Z,89.92
2017-08-18T00:51:29.656Z,89.92
2017-08-18T00:51:55.804Z,89.92
2017-08-18T00:52:21.980Z,89.63
2017-08-18T00:52:48.207Z,89.82
2017-08-18T00:53:14.360Z,89.34
2017-08-18T00:53:40.592Z,89.05
2017-08-18T00:54:06.749Z,89.34
2017-08-18T00:54:32.905Z,89.63
2017-08-18T00:54:59.074Z,89.92
2017-08-18T00:55:25.263Z,89.82
2017-08-18T00:55:51.395Z,89.63
2017-08-18T00:56:17.571Z,89.82
2017-08-18T00:56:43.784Z,90.11
2017-08-18T00:57:09.968Z,90.4
2017-08-18T00:57:36.137Z,90.4
2017-08-18T00:58:02.297Z,90.4
2017-08-18T00:58:28.520Z,90.11
2017-08-18T00:58:54.710Z,90.78
2017-08-18T00:59:20.903Z,90.55
2017-08-18T00:59:47.104Z,90.78
2017-08-18T01:00:13.289Z,90.64
2017-08-18T01:00:39.453Z,90.88
2017-08-18T01:01:05.626Z,90.5
2017-08-18T01:01:31.779Z,90.88
2017-08-18T01:01:57.942Z,90.11
2017-08-18T01:02:24.119Z,90.5
2017-08-18T01:02:50.313Z,90.3
2017-08-18T01:03:16.511Z,90.3
2017-08-18T01:03:42.722Z,90.2
2017-08-18T01:04:08.852Z,90.2
2017-08-18T01:04:35.025Z,90.4
2017-08-18T01:05:01.202Z,90.3
2017-08-18T01:05:27.363Z,90.4
2017-08-18T01:05:53.540Z,90.5
2017-08-18T01:06:19.711Z,90.59
2017-08-18T01:06:45.935Z,90.2
2017-08-18T01:07:12.091Z,89.82
2017-08-18T01:07:38.264Z,89.82
2017-08-18T01:08:04.457Z,89.92
2017-08-18T01:08:30.668Z,90.01
2017-08-18T01:08:56.893Z,90.5
2017-08-18T01:09:23.100Z,90.11
2017-08-18T01:09:49.215Z,89.82
2017-08-18T01:10:15.346Z,89.82
2017-08-18T01:10:41.568Z,89.82
2017-08-18T01:11:07.743Z,89.92
2017-08-18T01:11:33.968Z,89.72
2017-08-18T01:12:00.190Z,89.92
2017-08-18T01:12:26.337Z,89.72
2017-08-18T01:12:52.561Z,89.72
2017-08-18T01:13:18.793Z,88.85
2017-08-18T01:13:44.936Z,88.95
2017-08-18T01:14:11.152Z,88.95
2017-08-18T01:14:37.379Z,89.82
2017-08-18T01:15:03.530Z,89.72
2017-08-18T01:15:29.706Z,89.24
2017-08-18T01:15:55.871Z,89.15
2017-08-18T01:16:22.025Z,89.15
2017-08-18T01:16:48.192Z,89.72
2017-08-18T01:17:14.456Z,90.2
2017-08-18T01:17:40.605Z,89.72
2017-08-18T01:18:06.750Z,89.92
2017-08-18T01:18:32.939Z,89.53
2017-08-18T01:18:59.068Z,90.2
2017-08-18T01:19:25.254Z,90.3
2017-08-18T01:19:51.404Z,90.3
2017-08-18T01:20:17.574Z,90.3
2017-08-18T01:20:43.773Z,90.4
2017-08-18T01:21:09.954Z,90.2
2017-08-18T01:21:36.128Z,90.11
2017-08-18T01:22:02.325Z,90.88
2017-08-18T01:22:28.516Z,90.11
2017-08-18T01:22:54.719Z,90.4
2017-08-18T01:23:20.905Z,90.3
2017-08-18T01:23:47.106Z,90.2
2017-08-18T01:24:13.216Z,90.5
2017-08-18T01:24:39.429Z,90.5
2017-08-18T01:25:05.647Z,90.69
2017-08-18T01:25:31.824Z,90.59
2017-08-18T01:25:58.008Z,90.78
2017-08-18T01:26:24.185Z,90.2
2017-08-18T01:26:50.341Z,90.59
2017-08-18T01:27:16.567Z,90.5
2017-08-18T01:27:42.733Z,90.69
2017-08-18T01:28:08.925Z,90.88
2017-08-18T01:28:35.154Z,90.11
2017-08-18T01:29:01.293Z,90.3
2017-08-18T01:29:27.474Z,89.63
2017-08-18T01:29:53.674Z,90.59
2017-08-18T01:30:19.854Z,89.72
2017-08-18T01:30:46.017Z,89.43
2017-08-18T01:31:12.220Z,89.82
2017-08-18T01:31:38.437Z,89.82
2017-08-18T01:32:04.666Z,90.01
2017-08-18T01:32:30.843Z,89.92
2017-08-18T01:32:56.999Z,90.01
2017-08-18T01:33:23.120Z,90.01
2017-08-18T01:33:49.337Z,89.72
2017-08-18T01:34:15.480Z,89.53
2017-08-18T01:34:41.708Z,89.82
2017-08-18T01:35:07.889Z,89.15
2017-08-18T01:35:34.092Z,89.72
2017-08-18T01:36:00.325Z,89.34
2017-08-18T01:36:26.529Z,89.05
2017-08-18T01:36:52.794Z,89.63
2017-08-18T01:37:19.005Z,89.05
2017-08-18T01:37:45.180Z,89.82
2017-08-18T01:38:11.410Z,89.92
2017-08-18T01:38:37.556Z,89.34
2017-08-18T01:39:03.673Z,89.34
2017-08-18T01:39:29.930Z,89.43
2017-08-18T01:39:56.090Z,89.63
2017-08-18T01:40:22.234Z,88.85
2017-08-18T01:40:48.427Z,89.39
2017-08-18T01:41:14.661Z,89.39
2017-08-18T01:41:40.873Z,89.15
2017-08-18T01:42:07.054Z,89.39
2017-08-18T01:42:33.227Z,89.05
2017-08-18T01:42:59.452Z,89.15
2017-08-18T01:43:25.639Z,89.39
2017-08-18T01:43:51.845Z,89
2017-08-18T01:44:17.994Z,89.19
2017-08-18T01:44:44.161Z,89.09
2017-08-18T01:45:10.360Z,89
2017-08-18T01:45:36.548Z,88.81
2017-08-18T01:46:02.675Z,89.09
2017-08-18T01:46:28.824Z,88.95
2017-08-18T01:46:55.002Z,88.9
2017-08-18T01:47:21.219Z,88.9
2017-08-18T01:47:47.373Z,89
2017-08-18T01:48:13.536Z,89.29
2017-08-18T01:48:39.742Z,89.63
2017-08-18T01:49:05.994Z,89.72
2017-08-18T01:49:32.160Z,89.53
2017-08-18T01:49:58.305Z,89.92
2017-08-18T01:50:24.451Z,89.34
2017-08-18T01:50:50.711Z,89.63
2017-08-18T01:51:16.864Z,89.72
2017-08-18T01:51:43.064Z,89.53
2017-08-18T01:52:09.325Z,89.82
2017-08-18T01:52:35.446Z,89.63
2017-08-18T01:53:01.637Z,89.92
2017-08-18T01:53:27.818Z,90.01
2017-08-18T01:53:53.969Z,89.92
2017-08-18T01:54:20.164Z,89.63
2017-08-18T01:54:46.385Z,89.63
2017-08-18T01:55:12.590Z,89.05
2017-08-18T01:55:38.788Z,89.34
2017-08-18T01:56:04.942Z,89.05
2017-08-18T01:56:31.116Z,89.43
2017-08-18T01:56:57.342Z,89.34
2017-08-18T01:57:23.536Z,89.53
2017-08-18T01:57:49.679Z,89.43
2017-08-18T01:58:15.894Z,89.05
2017-08-18T01:58:42.057Z,89.05
2017-08-18T01:59:08.231Z,89.15
2017-08-18T01:59:34.350Z,89.63
2017-08-18T02:00:00.544Z,89.05
2017-08-18T02:00:26.720Z,89.43
2017-08-18T02:00:52.936Z,89.34
2017-08-18T02:01:19.193Z,89.34
2017-08-18T02:01:45.377Z,89.43
2017-08-18T02:02:11.496Z,89.72
2017-08-18T02:02:37.692Z,89.92
2017-08-18T02:03:03.908Z,89.92
2017-08-18T02:03:30.082Z,89.82
2017-08-18T02:03:56.281Z,89.92
2017-08-18T02:04:22.462Z,89.72
2017-08-18T02:04:48.625Z,89.72
2017-08-18T02:05:14.769Z,89.82
2017-08-18T02:05:40.912Z,89.53
2017-08-18T02:06:07.072Z,89.82
2017-08-18T02:06:33.290Z,89.72
2017-08-18T02:06:59.487Z,90.11
2017-08-18T02:07:25.672Z,89.82
2017-08-18T02:07:51.858Z,90.11
2017-08-18T02:08:18.034Z,89.63
2017-08-18T02:08:44.246Z,90.3
2017-08-18T02:09:10.423Z,90.3
2017-08-18T02:09:36.590Z,90.11
2017-08-18T02:10:02.743Z,90.93
2017-08-18T02:10:28.922Z,90.35
2017-08-18T02:10:55.112Z,90.55
2017-08-18T02:11:21.333Z,90.5
2017-08-18T02:11:47.507Z,91.07
2017-08-18T02:12:13.732Z,90.97
2017-08-18T02:12:39.926Z,90.78
2017-08-18T02:13:06.103Z,90.88
2017-08-18T02:13:32.288Z,91.03
2017-08-18T02:13:58.450Z,91.13
2017-08-18T02:14:24.651Z,91.03
2017-08-18T02:14:50.833Z,91.17
2017-08-18T02:15:16.989Z,91.13
2017-08-18T02:15:43.210Z,90.93
2017-08-18T02:16:09.408Z,90.93
2017-08-18T02:16:35.583Z,91.13
2017-08-18T02:17:01.739Z,90.69
2017-08-18T02:17:27.969Z,90.93
2017-08-18T02:17:54.136Z,90.83
2017-08-18T02:18:20.339Z,91.03
2017-08-18T02:18:46.562Z,90.93
2017-08-18T02:19:12.739Z,91.13
2017-08-18T02:19:38.905Z,91.13
2017-08-18T02:20:05.098Z,90.45
2017-08-18T02:20:31.275Z,90.69
2017-08-18T02:20:57.419Z,90.64
2017-08-18T02:21:23.611Z,90.45
2017-08-18T02:21:49.821Z,91.51
2017-08-18T02:22:15.990Z,91.31
2017-08-18T02:22:42.145Z,92.08
2017-08-18T02:23:08.335Z,91.89
2017-08-18T02:23:34.502Z,91.6
2017-08-18T02:24:00.704Z,91.6
2017-08-18T02:24:26.860Z,91.6
2017-08-18T02:24:53.029Z,91.99
2017-08-18T02:25:19.169Z,92.08
2017-08-18T02:25:45.325Z,90.93
2017-08-18T02:26:11.497Z,91.31
2017-08-18T02:26:37.683Z,91.31
2017-08-18T02:27:03.819Z,91.13
2017-08-18T02:27:30.000Z,91.13
2017-08-18T02:27:56.188Z,91.31
2017-08-18T02:28:22.358Z,91.41
2017-08-18T02:28:48.531Z,91.13
2017-08-18T02:29:14.785Z,90.93
2017-08-18T02:29:40.896Z,91.13
2017-08-18T02:30:07.063Z,91.51
2017-08-18T02:30:33.252Z,91.22
2017-08-18T02:30:59.433Z,91.13
2017-08-18T02:31:25.601Z,91.8
2017-08-18T02:31:51.874Z,91.22
2017-08-18T02:32:18.075Z,91.22
2017-08-18T02:32:44.261Z,90.93
2017-08-18T02:33:10.439Z,91.99
2017-08-18T02:33:36.603Z,91.8
2017-08-18T02:34:02.820Z,92.08
2017-08-18T02:34:28.962Z,91.8
2017-08-18T02:34:55.163Z,91.99
2017-08-18T02:35:21.353Z,91.99
2017-08-18T02:35:47.505Z,91.6
2017-08-18T02:36:13.696Z,92.38
2017-08-18T02:36:39.879Z,91.89
2017-08-18T02:37:06.098Z,92.08
2017-08-18T02:37:32.232Z,92.33
2017-08-18T02:37:58.422Z,92.33
2017-08-18T02:38:24.621Z,92.47
2017-08-18T02:38:50.811Z,92.38
2017-08-18T02:39:16.934Z,92.18
2017-08-18T02:39:43.098Z,91.99
2017-08-18T02:40:09.332Z,92.28
2017-08-18T02:40:35.525Z,91.6
2017-08-18T02:41:01.750Z,91.6
2017-08-18T02:41:27.920Z,91.51
2017-08-18T02:41:54.108Z,91.8
2017-08-18T02:42:20.307Z,91.7
2017-08-18T02:42:46.504Z,92.13
2017-08-18T02:43:12.731Z,92.13
2017-08-18T02:43:38.939Z,91.7
2017-08-18T02:44:05.110Z,92.28
2017-08-18T02:44:31.303Z,92.33
2017-08-18T02:44:57.510Z,92.13
2017-08-18T02:45:23.708Z,92.04
2017-08-18T02:45:49.958Z,92.04
2017-08-18T02:46:16.114Z,92.04
2017-08-18T02:46:42.310Z,92.33
2017-08-18T02:47:08.521Z,92.13
2017-08-18T02:47:34.681Z,91.85
2017-08-18T02:48:00.905Z,92.43
2017-08-18T02:48:27.112Z,92.43
2017-08-18T02:48:53.342Z,92.23
2017-08-18T02:49:19.592Z,92.71
2017-08-18T02:49:45.739Z,93.1
2017-08-18T02:50:11.904Z,93
2017-08-18T02:50:38.083Z,92.91
2017-08-18T02:51:04.333Z,92.43
2017-08-18T02:51:30.528Z,92.23
2017-08-18T02:51:56.709Z,92.23
2017-08-18T02:52:22.929Z,91.56
2017-08-18T02:52:49.092Z,92.04
2017-08-18T02:53:15.268Z,92.04
2017-08-18T02:53:41.452Z,92.23
2017-08-18T02:54:07.690Z,92.13
2017-08-18T02:54:33.850Z,92.52
2017-08-18T02:55:00.048Z,91.94
2017-08-18T02:55:26.256Z,92.33
2017-08-18T02:55:52.382Z,92.04
2017-08-18T02:56:18.489Z,91.85
2017-08-18T02:56:44.695Z,91.85
2017-08-18T02:57:10.913Z,92.23
2017-08-18T02:57:37.099Z,92.33
2017-08-18T02:58:03.292Z,92.33
2017-08-18T02:58:29.457Z,92.33
2017-08-18T02:58:55.572Z,92.23
2017-08-18T02:59:21.795Z,92.52
2017-08-18T02:59:47.924Z,92.33
2017-08-18T03:00:14.095Z,92.04
2017-08-18T03:00:40.287Z,92.04
2017-08-18T03:01:06.427Z,92.23
2017-08-18T03:01:32.567Z,92.43
2017-08-18T03:01:58.759Z,92.04
2017-08-18T03:02:24.935Z,92.04
2017-08-18T03:02:51.097Z,91.85
2017-08-18T03:03:17.307Z,91.56
2017-08-18T03:03:43.517Z,91.8
2017-08-18T03:04:09.654Z,91.56
2017-08-18T03:04:35.827Z,91.51
2017-08-18T03:05:02.022Z,91.75
2017-08-18T03:05:28.197Z,91.8
2017-08-18T03:05:54.371Z,91.99
2017-08-18T03:06:20.569Z,90.93
2017-08-18T03:06:46.758Z,91.13
2017-08-18T03:07:12.945Z,91.99
2017-08-18T03:07:39.107Z,91.6
2017-08-18T03:08:05.319Z,92.23
2017-08-18T03:08:31.477Z,92.33
2017-08-18T03:08:57.605Z,92.43
2017-08-18T03:09:23.845Z,92.33
2017-08-18T03:09:50.061Z,92.23
2017-08-18T03:10:16.233Z,92.43
2017-08-18T03:10:42.431Z,92.28
2017-08-18T03:11:08.643Z,92.08
2017-08-18T03:11:34.850Z,91.6
2017-08-18T03:12:01.037Z,91.94
2017-08-18T03:12:27.263Z,92.04
2017-08-18T03:12:53.441Z,92.04
2017-08-18T03:13:19.571Z,92.23
2017-08-18T03:13:45.767Z,93
2017-08-18T03:14:11.907Z,92.71
2017-08-18T03:14:38.070Z,92.61
2017-08-18T03:15:04.242Z,92.43
2017-08-18T03:15:30.437Z,92.33
2017-08-18T03:15:56.626Z,92.33
2017-08-18T03:16:22.801Z,92.57
2017-08-18T03:16:48.986Z,92.38
2017-08-18T03:17:15.152Z,92.28
2017-08-18T03:17:41.358Z,92.08
2017-08-18T03:18:07.515Z,92.18
2017-08-18T03:18:33.686Z,92.08
2017-08-18T03:18:59.853Z,92.08
2017-08-18T03:19:26.039Z,92.18
2017-08-18T03:19:52.220Z,92.08
2017-08-18T03:20:18.388Z,92.08
2017-08-18T03:20:44.545Z,91.99
2017-08-18T03:21:10.764Z,92.18
2017-08-18T03:21:36.874Z,92.71
2017-08-18T03:22:03.021Z,93
2017-08-18T03:22:29.267Z,92.81
2017-08-18T03:22:55.456Z,93
2017-08-18T03:23:21.637Z,93.19
2017-08-18T03:23:47.828Z,93
2017-08-18T03:24:14.078Z,93
2017-08-18T03:24:40.257Z,93.19
2017-08-18T03:25:06.478Z,93.1
2017-08-18T03:25:32.653Z,93.38
2017-08-18T03:25:58.902Z,93.19
2017-08-18T03:26:25.039Z,93.1
2017-08-18T03:26:51.226Z,93.19
2017-08-18T03:27:17.382Z,93.48
2017-08-18T03:27:43.584Z,93.29
2017-08-18T03:28:09.788Z,93
2017-08-18T03:28:35.947Z,93.1
2017-08-18T03:29:02.087Z,93.29
2017-08-18T03:29:28.231Z,93.68
2017-08-18T03:29:54.386Z,93.87
2017-08-18T03:30:20.565Z,93.96
2017-08-18T03:30:46.782Z,93.68
2017-08-18T03:31:13.000Z,93.96
2017-08-18T03:31:39.208Z,93.38
2017-08-18T03:32:05.348Z,93.68
2017-08-18T03:32:31.532Z,93.58
2017-08-18T03:32:57.657Z,93.77
2017-08-18T03:33:23.829Z,93.38
2017-08-18T03:33:49.980Z,93.19
2017-08-18T03:34:16.093Z,93.48
2017-08-18T03:34:42.280Z,92.91
2017-08-18T03:35:08.430Z,93.33
2017-08-18T03:35:34.598Z,93.1
2017-08-18T03:36:00.783Z,93.29
2017-08-18T03:36:27.002Z,93.1
2017-08-18T03:36:53.174Z,93.48
2017-08-18T03:37:19.323Z,93
2017-08-18T03:37:45.482Z,93
2017-08-18T03:38:11.677Z,93
2017-08-18T03:38:37.882Z,93.19
2017-08-18T03:39:04.056Z,93.48
2017-08-18T03:39:30.271Z,93.29
2017-08-18T03:39:56.475Z,93.48
2017-08-18T03:40:22.627Z,93.19
2017-08-18T03:40:48.776Z,93.05
2017-08-18T03:41:15.030Z,93.19
2017-08-18T03:41:41.201Z,93.1
2017-08-18T03:42:07.374Z,93.19
2017-08-18T03:42:33.555Z,93.48
2017-08-18T03:42:59.786Z,93
2017-08-18T03:43:25.987Z,93.48
2017-08-18T03:43:52.134Z,93.19
2017-08-18T03:44:18.359Z,92.81
2017-08-18T03:44:44.504Z,92.81
2017-08-18T03:45:10.615Z,92.91
2017-08-18T03:45:36.754Z,93
2017-08-18T03:46:02.909Z,92.81
2017-08-18T03:46:29.055Z,92.52
2017-08-18T03:46:55.191Z,92.66
2017-08-18T03:47:21.409Z,92.66
2017-08-18T03:47:47.556Z,92.66
2017-08-18T03:48:13.754Z,92.76
2017-08-18T03:48:39.939Z,92.66
2017-08-18T03:49:06.122Z,92.08
2017-08-18T03:49:32.262Z,92.38
2017-08-18T03:49:58.451Z,92.28
2017-08-18T03:50:24.590Z,92.38
2017-08-18T03:50:50.749Z,91.94
2017-08-18T03:51:16.928Z,92.43
2017-08-18T03:51:43.093Z,92.04
2017-08-18T03:52:09.222Z,92.66
2017-08-18T03:52:35.371Z,92.18
2017-08-18T03:53:01.510Z,92.08
2017-08-18T03:53:27.689Z,91.8
2017-08-18T03:53:53.848Z,92.47
2017-08-18T03:54:20.019Z,92.04
2017-08-18T03:54:46.166Z,92.38
2017-08-18T03:55:12.360Z,91.99
2017-08-18T03:55:38.503Z,91.99
2017-08-18T03:56:04.750Z,91.99
2017-08-18T03:56:30.916Z,92.04
2017-08-18T03:56:57.127Z,91.99
2017-08-18T03:57:23.343Z,92.33
2017-08-18T03:57:49.484Z,92.13
2017-08-18T03:58:15.631Z,92.28
2017-08-18T03:58:41.825Z,92.13
2017-08-18T03:59:07.936Z,92.47
2017-08-18T03:59:34.141Z,91.99
2017-08-18T04:00:00.358Z,91.99
2017-08-18T04:00:26.598Z,91.99
2017-08-18T04:00:52.740Z,92.28
2017-08-18T04:01:18.955Z,91.89
2017-08-18T04:01:45.133Z,92.08
2017-08-18T04:02:11.357Z,92.08
2017-08-18T04:02:37.529Z,92.08
2017-08-18T04:03:03.701Z,91.8
2017-08-18T04:03:29.888Z,92.28
2017-08-18T04:03:56.032Z,92.38
2017-08-18T04:04:22.202Z,92.18
2017-08-18T04:04:48.360Z,92.23
2017-08-18T04:05:14.508Z,92.28
2017-08-18T04:05:40.701Z,92.38
2017-08-18T04:06:06.919Z,92.33
2017-08-18T04:06:33.066Z,92.43
2017-08-18T04:06:59.244Z,92.52
2017-08-18T04:07:25.445Z,92.57
2017-08-18T04:07:51.588Z,92.33
2017-08-18T04:08:17.777Z,92.04
2017-08-18T04:08:43.988Z,92.38
2017-08-18T04:09:10.127Z,92.18
2017-08-18T04:09:36.311Z,92.38
2017-08-18T04:10:02.521Z,92.38
2017-08-18T04:10:28.659Z,92.08
2017-08-18T04:10:54.841Z,92.28
2017-08-18T04:11:21.000Z,92.43
2017-08-18T04:11:47.161Z,92.38
2017-08-18T04:12:13.307Z,92.38
2017-08-18T04:12:39.464Z,92.43
2017-08-18T04:13:05.605Z,93.1
2017-08-18T04:13:31.776Z,92.71
2017-08-18T04:13:57.968Z,92.81
2017-08-18T04:14:24.167Z,92.52
2017-08-18T04:14:50.311Z,92.81
2017-08-18T04:15:16.560Z,92.61
2017-08-18T04:15:42.707Z,92.71
2017-08-18T04:16:08.846Z,93.19
2017-08-18T04:16:35.028Z,93.19
2017-08-18T04:17:01.243Z,93.19
2017-08-18T04:17:27.414Z,92.71
2017-08-18T04:17:53.573Z,92.81
2017-08-18T04:18:19.765Z,92.71
2017-08-18T04:18:45.961Z,92.43
2017-08-18T04:19:12.177Z,92.95
2017-08-18T04:19:38.313Z,92.52
2017-08-18T04:20:04.501Z,92.71
2017-08-18T04:20:30.719Z,92.66
2017-08-18T04:20:56.913Z,92.52
2017-08-18T04:21:23.124Z,92.61
2017-08-18T04:21:49.311Z,93.19
2017-08-18T04:22:15.478Z,92.81
2017-08-18T04:22:41.661Z,93.1
2017-08-18T04:23:07.851Z,92.52
2017-08-18T04:23:33.966Z,93.19
2017-08-18T04:24:00.178Z,92.81
2017-08-18T04:24:26.344Z,92.66
2017-08-18T04:24:52.496Z,92.91
2017-08-18T04:25:18.751Z,92.61
2017-08-18T04:25:44.887Z,92.52
2017-08-18T04:26:11.043Z,92.71
2017-08-18T04:26:37.259Z,92.81
2017-08-18T04:27:03.431Z,93.19
2017-08-18T04:27:29.605Z,92.91
2017-08-18T04:27:55.760Z,92.71
2017-08-18T04:28:21.960Z,92.71
2017-08-18T04:28:48.126Z,92.81
2017-08-18T04:29:14.274Z,93
2017-08-18T04:29:40.478Z,93
2017-08-18T04:30:06.637Z,93.15
2017-08-18T04:30:32.830Z,93
2017-08-18T04:30:59.032Z,93.29
2017-08-18T04:31:25.221Z,93.19
2017-08-18T04:31:51.370Z,93
2017-08-18T04:32:17.508Z,93.68
2017-08-18T04:32:43.670Z,93.19
2017-08-18T04:33:09.848Z,93.19
2017-08-18T04:33:36.078Z,93.77
2017-08-18T04:34:02.263Z,93.38
2017-08-18T04:34:28.488Z,93.58
2017-08-18T04:34:54.609Z,93.38
2017-08-18T04:35:20.785Z,93.19
2017-08-18T04:35:46.983Z,92.66
2017-08-18T04:36:13.203Z,92.47
2017-08-18T04:36:39.352Z,92.61
2017-08-18T04:37:05.489Z,92.61
2017-08-18T04:37:31.705Z,92.47
2017-08-18T04:37:57.921Z,93
2017-08-18T04:38:24.094Z,92.81
2017-08-18T04:38:50.313Z,92.52
2017-08-18T04:39:16.530Z,92.57
2017-08-18T04:39:42.666Z,92.91
2017-08-18T04:40:08.844Z,92.61
2017-08-18T04:40:34.959Z,92.61
2017-08-18T04:41:01.117Z,92.81
2017-08-18T04:41:27.335Z,92.66
2017-08-18T04:41:53.504Z,92.76
2017-08-18T04:42:19.691Z,92.85
2017-08-18T04:42:45.820Z,92.28
2017-08-18T04:43:12.015Z,92.18
2017-08-18T04:43:38.133Z,92.18
2017-08-18T04:44:04.289Z,92.18
2017-08-18T04:44:30.485Z,92.38
2017-08-18T04:44:56.690Z,92.08
2017-08-18T04:45:22.849Z,91.8
2017-08-18T04:45:49.024Z,91.89
2017-08-18T04:46:15.273Z,92.28
2017-08-18T04:46:41.465Z,92.08
2017-08-18T04:47:07.613Z,91.8
2017-08-18T04:47:33.800Z,92.28
2017-08-18T04:47:59.911Z,92.38
2017-08-18T04:48:26.056Z,92.18
2017-08-18T04:48:52.213Z,91.8
2017-08-18T04:49:18.381Z,91.99
2017-08-18T04:49:44.522Z,92.08
2017-08-18T04:50:10.686Z,91.89
2017-08-18T04:50:36.866Z,91.89
2017-08-18T04:51:03.032Z,91.89
2017-08-18T04:51:29.249Z,91.7
2017-08-18T04:51:55.418Z,91.51
2017-08-18T04:52:21.633Z,91.31
2017-08-18T04:52:47.839Z,91.13
2017-08-18T04:53:14.004Z,91.41
2017-08-18T04:53:40.163Z,91.31
2017-08-18T04:54:06.344Z,91.31
2017-08-18T04:54:32.511Z,91.41
2017-08-18T04:54:58.698Z,91.13
2017-08-18T04:55:24.918Z,91.03
2017-08-18T04:55:51.084Z,90.93
2017-08-18T04:56:17.273Z,91.89
2017-08-18T04:56:43.528Z,91.31
2017-08-18T04:57:09.723Z,90.93
2017-08-18T04:57:35.904Z,91.99
2017-08-18T04:58:02.123Z,91.89
2017-08-18T04:58:28.290Z,91.6
2017-08-18T04:58:54.404Z,91.03
2017-08-18T04:59:20.530Z,91.22
2017-08-18T04:59:46.649Z,91.31
2017-08-18T05:00:12.839Z,91.22
2017-08-18T05:00:39.003Z,91.99
2017-08-18T05:01:05.215Z,91.89
2017-08-18T05:01:31.443Z,91.8
2017-08-18T05:01:57.659Z,91.03
2017-08-18T05:02:23.912Z,91.31
2017-08-18T05:02:50.088Z,91.22
2017-08-18T05:03:16.295Z,90.93
2017-08-18T05:03:42.461Z,91.89
2017-08-18T05:04:08.651Z,91.89
2017-08-18T05:04:34.793Z,91.7
2017-08-18T05:05:00.961Z,90.83
2017-08-18T05:05:27.146Z,91.22
2017-08-18T05:05:53.328Z,91.31
2017-08-18T05:06:19.527Z,91.13
2017-08-18T05:06:45.740Z,91.6
2017-08-18T05:07:11.964Z,91.51
2017-08-18T05:07:38.156Z,91.7
2017-08-18T05:08:04.334Z,91.8
2017-08-18T05:08:30.480Z,91.51
2017-08-18T05:08:56.664Z,91.6
2017-08-18T05:09:22.845Z,91.6
2017-08-18T05:09:49.047Z,91.6
2017-08-18T05:10:15.285Z,91.13
2017-08-18T05:10:41.472Z,91.41
2017-08-18T05:11:07.662Z,91.03
2017-08-18T05:11:33.870Z,90.35
2017-08-18T05:12:00.090Z,90.93
2017-08-18T05:12:26.318Z,90.35
2017-08-18T05:12:52.521Z,90.45
2017-08-18T05:13:18.773Z,90.55
2017-08-18T05:13:44.888Z,90.64
2017-08-18T05:14:11.079Z,90.64
2017-08-18T05:14:37.328Z,90.55
2017-08-18T05:15:03.420Z,90.45
2017-08-18T05:15:29.641Z,90.45
2017-08-18T05:15:55.873Z,90.64
2017-08-18T05:16:22.077Z,90.45
2017-08-18T05:16:48.232Z,90.83
2017-08-18T05:17:14.410Z,91.13
2017-08-18T05:17:40.554Z,90.83
2017-08-18T05:18:06.779Z,90.93
2017-08-18T05:18:32.897Z,90.93
2017-08-18T05:18:59.033Z,91.13
2017-08-18T05:19:25.221Z,90.93
2017-08-18T05:19:51.365Z,90.83
2017-08-18T05:20:17.588Z,90.83
2017-08-18T05:20:43.789Z,90.64
2017-08-18T05:21:09.992Z,90.73
2017-08-18T05:21:36.211Z,90.64
2017-08-18T05:22:02.358Z,90.73
2017-08-18T05:22:28.490Z,90.93
2017-08-18T05:22:54.673Z,90.64
2017-08-18T05:23:20.855Z,90.64
2017-08-18T05:23:47.000Z,90.45
2017-08-18T05:24:13.238Z,90.45
2017-08-18T05:24:39.367Z,90.55
2017-08-18T05:25:05.569Z,90.26
2017-08-18T05:25:31.749Z,89.78
2017-08-18T05:25:57.919Z,89.87
2017-08-18T05:26:24.170Z,90.73
2017-08-18T05:26:50.383Z,90.45
2017-08-18T05:27:16.579Z,90.16
2017-08-18T05:27:42.706Z,89.97
2017-08-18T05:28:08.865Z,90.06
2017-08-18T05:28:35.034Z,90.06
2017-08-18T05:29:01.208Z,90.26
2017-08-18T05:29:27.370Z,90.26
2017-08-18T05:29:53.537Z,90.16
2017-08-18T05:30:19.722Z,90.26
2017-08-18T05:30:45.893Z,90.06
2017-08-18T05:31:12.111Z,90.35
2017-08-18T05:31:38.265Z,90.16
2017-08-18T05:32:04.468Z,89.97
2017-08-18T05:32:30.642Z,90.16
2017-08-18T05:32:56.864Z,89.97
2017-08-18T05:33:23.065Z,89.78
2017-08-18T05:33:49.213Z,89.78
2017-08-18T05:34:15.464Z,89.68
2017-08-18T05:34:41.667Z,89.87
2017-08-18T05:35:07.835Z,89.87
2017-08-18T05:35:33.996Z,89.49
2017-08-18T05:36:00.147Z,89.68
2017-08-18T05:36:26.292Z,89.39
2017-08-18T05:36:52.434Z,89.39
2017-08-18T05:37:18.549Z,89.68
2017-08-18T05:37:44.708Z,89.78
2017-08-18T05:38:10.883Z,90.26
2017-08-18T05:38:37.102Z,91.31
2017-08-18T05:39:03.261Z,91.13